createdAt,value
2018-05-09T00:00:36.998Z,41.83
2018-05-09T00:03:06.614Z,35.83
2018-05-09T00:05:37.968Z,39.87
2018-05-09T00:08:08.237Z,43.07
2018-05-09T00:10:38.943Z,41.53
2018-05-09T00:13:09.174Z,40.53
2018-05-09T00:15:39.019Z,41.20
2018-05-09T00:18:08.872Z,44.80
2018-05-09T00:20:39.634Z,45.77
2018-05-09T00:23:09.343Z,44.47
2018-05-09T00:25:39.996Z,37.27
2018-05-09T00:28:10.715Z,41.37
2018-05-09T00:30:40.583Z,44.27
2018-05-09T00:33:10.604Z,41.97
2018-05-09T00:35:40.944Z,45.27
2018-05-09T00:38:10.493Z,40.27
2018-05-09T00:40:40.105Z,42.77
2018-05-09T00:43:10.713Z,41.00
2018-05-09T00:45:42.332Z,41.30
2018-05-09T00:48:12.778Z,42.90
2018-05-09T00:50:42.668Z,41.87
2018-05-09T00:53:13.240Z,39.17
2018-05-09T00:55:44.284Z,36.97
2018-05-09T00:58:15.441Z,39.67
2018-05-09T01:00:47.820Z,41.60
2018-05-09T01:03:17.882Z,44.43
2018-05-09T01:05:47.385Z,77.07
2018-05-09T01:08:17.578Z,62.97
2018-05-09T01:10:47.165Z,65.47
2018-05-09T01:13:16.867Z,64.07
2018-05-09T01:15:46.573Z,60.10
2018-05-09T01:18:16.290Z,54.67
2018-05-09T01:20:45.994Z,58.03
2018-05-09T01:23:15.907Z,51.97
2018-05-09T01:25:46.394Z,51.93
2018-05-09T01:28:16.160Z,47.07
2018-05-09T01:30:47.389Z,70.00
2018-05-09T01:33:17.785Z,32.13
2018-05-09T01:35:47.321Z,33.77
2018-05-09T01:38:17.248Z,44.50
2018-05-09T01:40:46.973Z,38.70
2018-05-09T01:43:18.624Z,39.53
2018-05-09T01:45:48.172Z,33.63
2018-05-09T01:48:18.860Z,33.20
2018-05-09T01:50:48.633Z,28.13
2018-05-09T01:53:18.273Z,37.53
2018-05-09T01:55:47.808Z,34.60
2018-05-09T01:58:17.855Z,26.90
2018-05-09T02:00:48.280Z,27.00
2018-05-09T02:03:18.324Z,24.43
2018-05-09T02:05:48.051Z,21.87
2018-05-09T02:08:17.908Z,26.03
2018-05-09T02:10:47.697Z,27.57
2018-05-09T02:13:17.715Z,27.47
2018-05-09T02:15:47.525Z,27.37
2018-05-09T02:18:17.641Z,35.77
2018-05-09T02:20:47.172Z,52.40
2018-05-09T02:23:17.920Z,25.03
2018-05-09T02:25:48.452Z,24.70
2018-05-09T02:28:18.693Z,54.40
2018-05-09T02:30:48.221Z,58.53
2018-05-09T02:33:17.913Z,37.13
2018-05-09T02:35:47.589Z,33.40
2018-05-09T02:38:18.379Z,43.40
2018-05-09T02:40:48.006Z,18.93
2018-05-09T02:43:17.879Z,18.13
2018-05-09T02:45:47.738Z,25.60
2018-05-09T02:48:17.756Z,18.20
2018-05-09T02:50:48.283Z,16.73
2018-05-09T02:53:18.061Z,16.43
2018-05-09T02:55:47.921Z,14.87
2018-05-09T02:58:19.480Z,32.50
2018-05-09T03:00:49.017Z,30.67
2018-05-09T03:03:18.784Z,51.10
2018-05-09T03:05:48.347Z,32.23
2018-05-09T03:08:18.116Z,19.50
2018-05-09T03:10:47.809Z,21.37
2018-05-09T03:13:18.117Z,21.93
2018-05-09T03:15:47.678Z,25.30
2018-05-09T03:18:19.066Z,25.33
2018-05-09T03:20:49.147Z,27.40
2018-05-09T03:23:19.661Z,26.43
2018-05-09T03:25:50.073Z,22.00
2018-05-09T03:28:19.725Z,21.87
2018-05-09T03:30:49.297Z,20.03
2018-05-09T03:33:19.000Z,22.83
2018-05-09T03:35:48.534Z,19.67
2018-05-09T03:38:18.924Z,21.00
2018-05-09T03:40:48.650Z,18.60
2018-05-09T03:43:18.969Z,18.03
2018-05-09T03:45:48.682Z,17.80
2018-05-09T03:48:18.243Z,19.30
2018-05-09T03:50:47.819Z,23.70
2018-05-09T03:53:17.751Z,20.60
2018-05-09T03:55:47.306Z,22.00
2018-05-09T03:58:17.832Z,33.40
2018-05-09T04:00:47.316Z,20.70
2018-05-09T04:03:35.546Z,16.97
2018-05-09T04:06:24.434Z,21.33
2018-05-09T04:09:12.680Z,21.63
2018-05-09T04:11:42.163Z,20.37
2018-05-09T04:14:11.919Z,36.67
2018-05-09T04:16:41.745Z,27.77
2018-05-09T04:19:12.230Z,19.70
2018-05-09T04:21:42.119Z,49.97
2018-05-09T04:24:12.418Z,34.67
2018-05-09T04:26:42.250Z,19.27
2018-05-09T04:29:13.048Z,20.30
2018-05-09T04:31:42.786Z,29.30
2018-05-09T04:34:13.210Z,27.97
2018-05-09T04:36:44.432Z,39.40
2018-05-09T04:39:14.134Z,30.10
2018-05-09T04:41:43.836Z,23.93
2018-05-09T04:44:13.496Z,18.00
2018-05-09T04:46:43.173Z,19.03
2018-05-09T04:49:20.332Z,25.97
2018-05-09T04:51:49.836Z,25.70
2018-05-09T04:54:19.433Z,16.30
2018-05-09T04:56:49.101Z,16.60
2018-05-09T04:59:23.792Z,18.83
2018-05-09T05:01:53.675Z,16.10
2018-05-09T05:04:23.206Z,18.13
2018-05-09T05:06:52.912Z,11.90
2018-05-09T05:09:22.683Z,18.53
2018-05-09T05:11:53.157Z,15.53
2018-05-09T05:14:22.749Z,30.07
2018-05-09T05:16:52.500Z,28.93
2018-05-09T05:19:22.034Z,21.30
2018-05-09T05:21:51.649Z,26.70
2018-05-09T05:24:22.111Z,32.50
2018-05-09T05:26:51.830Z,36.17
2018-05-09T05:29:21.595Z,21.87
2018-05-09T05:31:51.379Z,23.73
2018-05-09T05:34:21.465Z,21.43
2018-05-09T05:36:51.277Z,24.13
2018-05-09T05:39:21.034Z,19.83
2018-05-09T05:41:52.124Z,24.90
2018-05-09T05:44:21.864Z,20.50
2018-05-09T05:46:51.432Z,19.93
2018-05-09T05:49:21.878Z,27.57
2018-05-09T05:51:51.420Z,20.43
2018-05-09T05:54:20.922Z,27.67
2018-05-09T05:56:50.471Z,20.57
2018-05-09T05:59:20.001Z,41.07
2018-05-09T06:01:49.654Z,21.40
2018-05-09T06:04:20.033Z,69.17
2018-05-09T06:06:49.707Z,42.67
2018-05-09T06:09:19.459Z,46.13
2018-05-09T06:11:50.490Z,18.87
2018-05-09T06:14:20.982Z,41.53
2018-05-09T06:16:50.532Z,52.87
2018-05-09T06:19:20.800Z,34.23
2018-05-09T06:21:50.613Z,41.00
2018-05-09T06:24:20.339Z,31.60
2018-05-09T06:26:50.173Z,26.00
2018-05-09T06:29:20.314Z,60.70
2018-05-09T06:31:49.948Z,34.10
2018-05-09T06:34:19.782Z,45.83
2018-05-09T06:36:49.416Z,10.33
2018-05-09T06:39:19.979Z,68.53
2018-05-09T06:41:49.471Z,11.80
2018-05-09T06:44:19.142Z,13.73
2018-05-09T06:46:48.946Z,13.53
2018-05-09T06:49:19.344Z,28.93
2018-05-09T06:51:49.175Z,42.53
2018-05-09T06:54:18.740Z,29.87
2018-05-09T06:56:48.394Z,40.63
2018-05-09T06:59:18.123Z,23.10
2018-05-09T07:01:49.659Z,41.07
2018-05-09T07:04:19.891Z,41.13
2018-05-09T07:06:49.653Z,39.60
2018-05-09T07:09:20.612Z,21.80
2018-05-09T07:11:50.081Z,9.53
2018-05-09T07:14:19.557Z,48.23
2018-05-09T07:16:49.224Z,38.17
2018-05-09T07:19:18.829Z,32.87
2018-05-09T07:21:48.536Z,38.07
2018-05-09T07:24:18.656Z,15.73
2018-05-09T07:26:48.912Z,11.37
2018-05-09T07:29:19.420Z,12.57
2018-05-09T07:31:50.503Z,43.80
2018-05-09T07:34:20.200Z,24.70
2018-05-09T07:36:50.820Z,36.63
2018-05-09T07:39:22.321Z,24.40
2018-05-09T07:41:53.445Z,45.80
2018-05-09T07:44:24.475Z,23.90
2018-05-09T07:46:54.205Z,27.30
2018-05-09T07:49:24.653Z,13.37
2018-05-09T07:51:54.205Z,24.73
2018-05-09T07:54:23.840Z,16.47
2018-05-09T07:57:08.028Z,29.20
2018-05-09T07:59:39.431Z,22.00
2018-05-09T08:02:10.717Z,52.13
2018-05-09T08:04:41.153Z,37.70
2018-05-09T08:07:12.819Z,49.77
2018-05-09T08:09:46.262Z,20.10
2018-05-09T08:12:21.294Z,12.57
2018-05-09T08:14:50.971Z,11.80
2018-05-09T08:17:20.862Z,12.00
2018-05-09T08:19:50.654Z,10.30
2018-05-09T08:22:21.050Z,8.97
2018-05-09T08:24:50.669Z,9.27
2018-05-09T08:27:20.191Z,9.57
2018-05-09T08:29:49.855Z,9.50
2018-05-09T08:32:20.565Z,8.87
2018-05-09T08:34:50.649Z,9.13
2018-05-09T08:37:21.367Z,7.73
2018-05-09T08:39:53.397Z,7.77
2018-05-09T08:42:24.974Z,7.07
2018-05-09T08:44:57.193Z,7.43
2018-05-09T08:47:26.861Z,6.47
2018-05-09T08:49:56.362Z,6.40
2018-05-09T08:52:26.079Z,5.17
2018-05-09T08:54:55.801Z,5.10
2018-05-09T08:57:25.375Z,4.53
2018-05-09T08:59:55.421Z,5.00
2018-05-09T09:02:24.920Z,4.67
2018-05-09T09:04:54.517Z,4.77
2018-05-09T09:07:24.032Z,4.57
2018-05-09T09:09:53.725Z,3.97
2018-05-09T09:12:23.274Z,3.83
2018-05-09T09:14:52.975Z,4.20
2018-05-09T09:17:22.597Z,4.60
2018-05-09T09:19:52.190Z,4.37
2018-05-09T09:22:21.943Z,3.92
2018-05-09T09:24:52.461Z,3.47
2018-05-09T09:27:36.683Z,3.22
2018-05-09T09:30:14.076Z,3.45
2018-05-09T09:32:43.777Z,3.50
2018-05-09T09:37:58.786Z,2.75
2018-05-09T09:40:28.577Z,3.15
2018-05-09T09:42:59.137Z,3.30
2018-05-09T09:45:29.706Z,3.53
2018-05-09T09:48:00.687Z,3.62
2018-05-09T09:50:31.492Z,3.67
2018-05-09T09:53:01.924Z,3.42
2018-05-09T09:55:31.566Z,3.60
2018-05-09T09:58:02.315Z,3.30
2018-05-09T10:00:32.845Z,3.90
2018-05-09T10:03:03.856Z,3.78
2018-05-09T10:05:35.144Z,4.07
2018-05-09T10:08:06.454Z,3.80
2018-05-09T10:10:37.100Z,3.83
2018-05-09T10:13:07.781Z,3.87
2018-05-09T10:15:38.055Z,3.85
2018-05-09T10:18:07.569Z,3.92
2018-05-09T10:20:37.143Z,4.00
2018-05-09T10:23:07.013Z,4.10
2018-05-09T10:25:36.584Z,3.70
2018-05-09T10:28:06.211Z,3.40
2018-05-09T10:30:35.808Z,4.00
2018-05-09T10:33:05.368Z,4.10
2018-05-09T10:35:35.733Z,4.50
2018-05-09T10:38:05.258Z,4.37
2018-05-09T10:40:34.957Z,4.18
2018-05-09T10:43:04.734Z,4.22
2018-05-09T10:45:34.231Z,4.90
2018-05-09T10:48:04.769Z,4.30
2018-05-09T10:50:35.212Z,5.00
2018-05-09T10:53:04.841Z,4.70
2018-05-09T10:55:34.372Z,4.25
2018-05-09T10:58:04.078Z,5.07
2018-05-09T11:00:34.145Z,4.35
2018-05-09T11:03:25.579Z,4.50
2018-05-09T11:09:37.704Z,4.03
2018-05-09T11:12:21.756Z,3.83
2018-05-09T11:14:51.256Z,4.22
2018-05-09T11:17:20.868Z,4.45
2018-05-09T11:19:50.846Z,4.50
2018-05-09T11:22:21.241Z,4.32
2018-05-09T11:24:51.045Z,4.43
2018-05-09T11:27:20.660Z,4.10
2018-05-09T11:29:50.285Z,4.20
2018-05-09T11:32:19.731Z,4.62
2018-05-09T11:34:49.186Z,4.65
2018-05-09T11:37:18.754Z,4.65
2018-05-09T11:39:48.184Z,4.30
2018-05-09T11:42:18.103Z,4.70
2018-05-09T11:44:50.035Z,4.45
2018-05-09T11:47:20.927Z,4.15
2018-05-09T11:49:50.409Z,4.40
2018-05-09T11:52:20.064Z,4.75
2018-05-09T11:54:50.563Z,4.78
2018-05-09T11:57:20.048Z,4.90
2018-05-09T11:59:49.770Z,4.87
2018-05-09T12:02:19.721Z,4.80
2018-05-09T12:04:49.801Z,5.07
2018-05-09T12:07:19.428Z,4.90
2018-05-09T12:09:52.216Z,4.90
2018-05-09T12:12:22.161Z,5.25
2018-05-09T12:14:52.701Z,4.70
2018-05-09T12:17:22.736Z,4.68
2018-05-09T12:19:52.407Z,5.00
2018-05-09T12:22:22.685Z,4.93
2018-05-09T12:24:52.149Z,4.60
2018-05-09T12:27:22.822Z,4.45
2018-05-09T12:29:52.349Z,5.18
2018-05-09T12:32:30.288Z,5.03
2018-05-09T12:35:01.737Z,4.72
2018-05-09T12:37:31.488Z,4.50
2018-05-09T12:40:01.163Z,4.45
2018-05-09T12:42:30.819Z,4.70
2018-05-09T12:45:00.388Z,4.95
2018-05-09T12:47:30.958Z,4.87
2018-05-09T12:50:00.618Z,4.82
2018-05-09T12:52:30.841Z,4.43
2018-05-09T12:55:01.214Z,4.55
2018-05-09T12:57:30.922Z,4.70
2018-05-09T13:00:00.513Z,4.85
2018-05-09T13:02:30.138Z,4.47
2018-05-09T13:04:59.705Z,5.00
2018-05-09T13:07:30.045Z,4.60
2018-05-09T13:09:59.670Z,4.40
2018-05-09T13:12:29.451Z,4.97
2018-05-09T13:15:00.027Z,4.93
2018-05-09T13:32:39.083Z,5.80
2018-05-09T13:35:09.241Z,6.00
2018-05-09T13:37:38.813Z,5.33
2018-05-09T13:40:08.366Z,5.50
2018-05-09T17:06:08.263Z,4.60
2018-05-09T17:08:38.864Z,4.33
2018-05-09T17:11:08.390Z,4.27
2018-05-09T17:13:38.505Z,5.33
2018-05-09T17:16:08.096Z,5.87
2018-05-09T17:18:38.876Z,8.00
2018-05-09T17:21:42.404Z,5.20
2018-05-09T17:24:13.280Z,5.07
2018-05-09T17:26:43.143Z,5.43
2018-05-09T17:29:12.906Z,5.70
2018-05-09T17:31:42.511Z,6.07
2018-05-09T17:34:12.188Z,6.63
2018-05-09T17:36:42.060Z,6.27
2018-05-09T17:39:11.849Z,7.27
2018-05-09T17:41:42.282Z,7.20
2018-05-09T17:44:11.991Z,5.50
2018-05-09T17:46:41.620Z,6.90
2018-05-09T17:49:12.128Z,6.90
2018-05-09T17:51:43.679Z,6.37
2018-05-09T17:54:13.804Z,5.97
2018-05-09T17:56:44.873Z,5.30
2018-05-09T17:59:15.712Z,5.30
2018-05-09T18:01:47.165Z,5.47
2018-05-09T18:04:16.923Z,5.93
2018-05-09T18:06:50.022Z,5.73
2018-05-09T18:09:21.423Z,5.80
2018-05-09T18:11:57.484Z,6.50
2018-05-09T18:14:27.263Z,6.33
2018-05-09T18:16:56.859Z,9.10
2018-05-09T18:19:26.441Z,11.87
2018-05-09T18:21:56.129Z,12.90
2018-05-09T18:24:27.371Z,13.20
2018-05-09T18:26:58.684Z,13.67
2018-05-09T18:29:28.393Z,12.53
2018-05-09T18:31:58.352Z,12.53
2018-05-09T18:34:29.056Z,14.83
2018-05-09T18:36:58.950Z,14.20
2018-05-09T18:39:29.427Z,15.07
2018-05-09T18:41:59.402Z,16.17
2018-05-09T18:44:30.139Z,14.23
2018-05-09T18:47:00.479Z,12.50
2018-05-09T18:49:30.965Z,13.83
2018-05-09T18:52:01.422Z,11.57
2018-05-09T18:54:33.192Z,14.57
2018-05-09T18:57:06.508Z,12.03
2018-05-09T18:59:36.406Z,10.33
2018-05-09T19:02:06.644Z,10.97
2018-05-09T19:04:39.213Z,9.70
2018-05-09T19:07:10.120Z,9.90
2018-05-09T19:09:40.243Z,9.60
2018-05-09T19:12:10.518Z,10.50
2018-05-09T19:14:42.983Z,10.40
2018-05-09T19:17:13.281Z,9.33
2018-05-09T19:19:44.235Z,9.97
2018-05-09T19:22:15.277Z,11.37
2018-05-09T19:24:46.263Z,8.93
2018-05-09T19:27:16.646Z,8.70
2018-05-09T19:29:47.685Z,9.60
2018-05-09T19:32:17.519Z,10.33
2018-05-09T19:34:49.655Z,9.67
2018-05-09T19:37:24.346Z,9.07
2018-05-09T19:39:59.368Z,9.93
2018-05-09T19:42:30.294Z,8.93
2018-05-09T19:45:00.812Z,9.33
2018-05-09T19:47:32.131Z,9.60
2018-05-09T19:50:03.158Z,10.87
2018-05-09T19:52:33.298Z,11.33
2018-05-09T19:55:03.139Z,12.40
2018-05-09T19:57:35.684Z,12.17
2018-05-09T20:00:06.988Z,14.13
2018-05-09T20:02:37.404Z,13.40
2018-05-09T20:05:07.961Z,14.37
2018-05-09T20:07:37.651Z,15.60
2018-05-09T20:10:08.693Z,17.00
2018-05-09T20:12:38.619Z,16.40
2018-05-09T20:15:08.226Z,15.00
2018-05-09T20:17:38.905Z,16.87
2018-05-09T20:20:15.308Z,15.03
2018-05-09T20:22:45.021Z,13.03
2018-05-09T20:25:17.145Z,12.90
2018-05-09T20:27:46.736Z,13.87
2018-05-09T20:30:24.084Z,15.70
2018-05-09T20:32:53.693Z,14.90
2018-05-09T20:35:24.000Z,15.23
2018-05-09T20:37:54.053Z,15.60
2018-05-09T20:40:25.641Z,14.73
2018-05-09T20:42:55.065Z,14.17
2018-05-09T20:45:24.680Z,14.07
2018-05-09T20:47:54.669Z,14.77
2018-05-09T20:50:24.271Z,15.80
2018-05-09T20:52:53.863Z,15.60
2018-05-09T20:55:30.371Z,17.60
2018-05-09T20:58:00.356Z,46.67
2018-05-09T21:00:30.236Z,139.27
2018-05-09T21:02:59.888Z,98.90
2018-05-09T21:05:31.888Z,106.93
2018-05-09T21:08:03.499Z,54.53
2018-05-09T21:10:33.396Z,98.83
2018-05-09T21:13:05.070Z,15.27
2018-05-09T21:15:37.062Z,16.37
2018-05-09T21:18:13.850Z,17.80
2018-05-09T21:20:44.567Z,21.20
2018-05-09T21:23:22.088Z,20.40
2018-05-09T21:25:52.006Z,20.40
2018-05-09T21:28:21.787Z,19.17
2018-05-09T21:31:03.082Z,20.87
2018-05-09T21:33:32.779Z,18.87
2018-05-09T21:36:03.560Z,19.37
2018-05-09T21:38:33.394Z,18.23
2018-05-09T21:41:03.028Z,18.80
2018-05-09T21:43:33.550Z,20.50
2018-05-09T21:46:03.366Z,20.90
2018-05-09T21:48:33.408Z,23.30
2018-05-09T21:51:02.949Z,22.87
2018-05-09T21:53:32.542Z,23.40
2018-05-09T21:56:02.268Z,24.07
2018-05-09T21:58:32.587Z,22.33
2018-05-09T22:01:02.579Z,18.20
2018-05-09T22:03:33.150Z,21.23
2018-05-09T22:06:09.022Z,23.97
2018-05-09T22:08:40.104Z,25.33
2018-05-09T22:11:11.630Z,27.47
2018-05-09T22:13:42.708Z,39.90
2018-05-09T22:16:14.513Z,94.07
2018-05-09T22:18:47.027Z,44.33
2018-05-09T22:21:16.625Z,64.07
2018-05-09T22:23:46.320Z,107.33
2018-05-09T22:26:22.385Z,64.03
2018-05-09T22:28:52.640Z,77.10
2018-05-09T22:31:36.265Z,34.20
2018-05-09T22:34:05.917Z,63.53
2018-05-09T22:36:36.483Z,76.97
2018-05-09T22:39:07.039Z,22.00
2018-05-09T22:41:44.998Z,36.53
2018-05-09T22:44:16.299Z,45.03
2018-05-09T22:46:46.639Z,16.50
2018-05-09T22:49:20.213Z,29.63
2018-05-09T22:51:50.233Z,15.23
2018-05-09T22:54:19.980Z,15.90
2018-05-09T22:56:49.816Z,24.43
2018-05-09T22:59:19.574Z,24.93
2018-05-09T23:01:50.670Z,21.97
2018-05-09T23:04:20.527Z,21.70
2018-05-09T23:06:52.299Z,23.37
2018-05-09T23:09:23.110Z,25.33
2018-05-09T23:11:57.147Z,27.23
2018-05-09T23:14:32.133Z,26.83
2018-05-09T23:17:01.931Z,26.57
2018-05-09T23:19:32.207Z,28.80
2018-05-09T23:22:03.624Z,25.97
2018-05-09T23:24:35.541Z,23.70
2018-05-09T23:27:05.534Z,23.27
2018-05-09T23:29:35.379Z,25.13
2018-05-09T23:32:06.660Z,25.40
2018-05-09T23:34:37.953Z,59.20
2018-05-09T23:37:07.650Z,27.20
2018-05-09T23:39:37.239Z,28.87
2018-05-09T23:42:08.112Z,31.07
2018-05-09T23:44:38.078Z,32.13
2018-05-09T23:47:07.757Z,59.33
2018-05-09T23:49:37.443Z,34.23
2018-05-09T23:52:07.468Z,33.00
2018-05-09T23:54:37.060Z,32.37
2018-05-09T23:57:08.348Z,45.43
2018-05-09T23:59:39.244Z,55.30
